createdAt,value
2018-05-26T00:02:02.047Z,14.70
2018-05-26T00:04:28.543Z,14.70
2018-05-26T00:06:55.005Z,14.60
2018-05-26T00:09:22.234Z,14.70
2018-05-26T00:11:49.484Z,14.60
2018-05-26T00:14:16.699Z,14.60
2018-05-26T00:16:44.171Z,14.60
2018-05-26T00:19:10.643Z,14.60
2018-05-26T00:21:37.826Z,14.50
2018-05-26T00:24:04.266Z,14.50
2018-05-26T00:26:30.757Z,14.40
2018-05-26T00:28:57.187Z,14.40
2018-05-26T00:31:23.696Z,14.40
2018-05-26T00:34:03.986Z,14.40
2018-05-26T00:36:30.493Z,14.40
2018-05-26T00:38:57.005Z,14.40
2018-05-26T00:41:38.456Z,14.40
2018-05-26T00:44:04.936Z,14.40
2018-05-26T00:46:32.194Z,14.40
2018-05-26T00:48:58.670Z,14.40
2018-05-26T00:51:25.163Z,14.40
2018-05-26T00:53:51.668Z,14.40
2018-05-26T00:56:18.926Z,14.40
2018-05-26T00:58:45.517Z,14.40
2018-05-26T01:01:12.107Z,14.40
2018-05-26T01:03:40.679Z,14.40
2018-05-26T01:06:07.273Z,14.40
2018-05-26T01:08:34.562Z,14.50
2018-05-26T01:11:01.132Z,14.50
2018-05-26T01:13:27.653Z,14.50
2018-05-26T01:15:54.183Z,14.50
2018-05-26T01:18:20.720Z,14.50
2018-05-26T01:20:47.258Z,14.50
2018-05-26T01:23:13.791Z,14.40
2018-05-26T01:25:40.332Z,14.30
2018-05-26T01:28:06.875Z,14.30
2018-05-26T01:30:33.427Z,14.30
2018-05-26T01:33:14.358Z,14.30
2018-05-26T01:35:40.874Z,14.30
2018-05-26T01:38:08.027Z,14.20
2018-05-26T01:40:35.187Z,14.20
2018-05-26T01:43:01.668Z,14.20
2018-05-26T01:45:28.142Z,14.20
2018-05-26T01:47:55.296Z,14.10
2018-05-26T01:50:21.754Z,14.10
2018-05-26T01:52:48.220Z,14.10
2018-05-26T01:55:14.644Z,14.00
2018-05-26T01:57:41.057Z,14.00
2018-05-26T02:00:07.505Z,14.10
2018-05-26T02:02:33.949Z,14.10
2018-05-26T02:05:00.383Z,14.10
2018-05-26T02:07:26.908Z,14.10
2018-05-26T02:09:53.301Z,14.10
2018-05-26T02:12:19.880Z,14.10
2018-05-26T02:14:46.440Z,14.10
2018-05-26T02:17:12.967Z,14.00
2018-05-26T02:19:39.531Z,14.00
2018-05-26T02:22:06.798Z,13.90
2018-05-26T02:24:34.079Z,13.90
2018-05-26T02:27:00.616Z,13.90
2018-05-26T02:29:27.113Z,13.80
2018-05-26T02:31:54.398Z,13.80
2018-05-26T02:34:20.960Z,13.80
2018-05-26T02:36:47.504Z,13.80
2018-05-26T02:39:14.100Z,13.80
2018-05-26T02:41:40.624Z,13.70
2018-05-26T02:44:07.152Z,13.70
2018-05-26T02:46:34.436Z,13.70
2018-05-26T02:49:00.962Z,13.70
2018-05-26T02:51:27.565Z,13.70
2018-05-26T02:53:54.822Z,13.70
2018-05-26T02:56:21.370Z,13.80
2018-05-26T02:58:47.898Z,13.80
2018-05-26T03:01:14.452Z,13.70
2018-05-26T03:03:41.011Z,13.80
2018-05-26T03:06:13.569Z,13.90
2018-05-26T03:08:46.073Z,13.90
2018-05-26T03:11:18.624Z,13.90
2018-05-26T03:13:51.100Z,13.90
2018-05-26T03:16:38.115Z,13.80
2018-05-26T03:19:05.343Z,13.80
2018-05-26T03:21:31.771Z,13.70
2018-05-26T03:23:58.258Z,13.80
2018-05-26T03:26:24.704Z,13.70
2018-05-26T03:28:51.153Z,13.80
2018-05-26T03:31:17.584Z,13.80
2018-05-26T03:33:44.054Z,13.70
2018-05-26T03:36:10.438Z,13.80
2018-05-26T03:38:36.928Z,13.70
2018-05-26T03:41:03.319Z,13.70
2018-05-26T03:43:29.749Z,13.70
2018-05-26T03:45:56.146Z,13.70
2018-05-26T03:53:13.433Z,13.90
2018-05-26T03:55:52.048Z,13.90
2018-05-26T03:58:30.626Z,13.90
2018-05-26T04:00:57.862Z,14.00
2018-05-26T04:03:24.312Z,14.00
2018-05-26T04:05:50.782Z,14.00
2018-05-26T04:08:17.213Z,14.00
2018-05-26T04:10:43.710Z,14.00
2018-05-26T04:13:11.930Z,14.10
2018-05-26T04:15:38.394Z,14.10
2018-05-26T04:18:04.857Z,14.10
2018-05-26T04:20:31.291Z,14.20
2018-05-26T04:22:57.753Z,14.20
2018-05-26T04:25:24.958Z,14.30
2018-05-26T04:27:51.402Z,14.30
2018-05-26T04:30:17.826Z,14.30
2018-05-26T04:32:44.234Z,14.30
2018-05-26T04:35:11.668Z,14.30
2018-05-26T04:37:38.102Z,14.30
2018-05-26T04:40:04.531Z,14.30
2018-05-26T04:42:31.000Z,14.40
2018-05-26T04:44:57.502Z,14.40
2018-05-26T04:47:23.940Z,14.40
2018-05-26T04:49:50.397Z,14.40
2018-05-26T04:52:18.897Z,14.50
2018-05-26T04:54:53.227Z,14.50
2018-05-26T04:57:19.695Z,14.50
2018-05-26T04:59:46.200Z,14.50
2018-05-26T05:02:13.422Z,14.60
2018-05-26T05:04:39.880Z,14.60
2018-05-26T05:07:06.312Z,14.60
2018-05-26T05:09:32.739Z,14.60
2018-05-26T05:11:59.928Z,14.60
2018-05-26T05:14:26.384Z,14.60
2018-05-26T05:16:52.768Z,14.60
2018-05-26T05:19:19.181Z,14.70
2018-05-26T05:21:45.570Z,14.70
2018-05-26T05:24:11.968Z,14.80
2018-05-26T05:26:39.150Z,14.80
2018-05-26T05:29:06.541Z,14.80
2018-05-26T05:31:32.967Z,14.80
2018-05-26T05:33:59.366Z,14.90
2018-05-26T05:38:58.613Z,15.00
2018-05-26T05:41:25.819Z,15.40
2018-05-26T05:43:52.229Z,15.40
2018-05-26T05:46:19.520Z,15.70
2018-05-26T05:48:46.032Z,15.70
2018-05-26T05:51:12.555Z,15.80
2018-05-26T05:53:39.807Z,15.90
2018-05-26T05:56:07.038Z,15.90
2018-05-26T05:58:34.292Z,16.00
2018-05-26T06:01:00.855Z,16.00
2018-05-26T06:03:27.419Z,16.20
2018-05-26T06:05:53.945Z,16.40
2018-05-26T06:08:20.466Z,16.40
2018-05-26T06:10:46.985Z,16.50
2018-05-26T06:13:13.525Z,16.70
2018-05-26T06:15:40.772Z,16.90
2018-05-26T06:18:07.310Z,16.90
2018-05-26T06:20:33.876Z,17.10
2018-05-26T06:23:00.375Z,17.20
2018-05-26T06:25:27.683Z,17.50
2018-05-26T06:27:54.208Z,17.50
2018-05-26T06:30:20.698Z,17.80
2018-05-26T06:32:47.933Z,18.30
2018-05-26T06:35:14.479Z,18.30
2018-05-26T06:37:41.110Z,18.60
2018-05-26T06:40:07.622Z,18.90
2018-05-26T06:42:34.115Z,19.10
2018-05-26T06:47:26.141Z,19.20
2018-05-26T06:49:52.541Z,19.60
2018-05-26T06:52:18.976Z,20.00
2018-05-26T06:54:45.420Z,20.40
2018-05-26T06:57:11.825Z,20.50
2018-05-26T06:59:39.249Z,20.60
2018-05-26T07:02:05.707Z,20.90
2018-05-26T07:04:32.130Z,21.00
2018-05-26T07:06:58.648Z,21.50
2018-05-26T07:09:25.208Z,21.90
2018-05-26T07:11:51.609Z,21.80
2018-05-26T07:14:18.815Z,21.80
2018-05-26T07:16:45.292Z,21.70
2018-05-26T07:19:11.682Z,21.80
2018-05-26T07:21:38.101Z,22.00
2018-05-26T07:24:04.523Z,22.00
2018-05-26T07:26:30.984Z,22.00
2018-05-26T07:28:57.393Z,22.10
2018-05-26T07:31:23.816Z,21.80
2018-05-26T07:33:50.220Z,22.00
2018-05-26T07:36:16.651Z,22.00
2018-05-26T07:38:43.069Z,22.10
2018-05-26T07:41:10.257Z,22.20
2018-05-26T07:43:36.683Z,22.20
2018-05-26T07:46:03.867Z,22.10
2018-05-26T07:48:30.294Z,22.10
2018-05-26T07:50:56.701Z,22.50
2018-05-26T07:53:23.908Z,22.30
2018-05-26T07:55:50.448Z,22.30
2018-05-26T07:58:16.877Z,22.60
2018-05-26T08:00:43.323Z,22.70
2018-05-26T08:03:09.784Z,22.50
2018-05-26T08:05:36.276Z,22.30
2018-05-26T08:08:03.737Z,22.50
2018-05-26T08:10:30.179Z,22.90
2018-05-26T08:12:56.610Z,23.40
2018-05-26T08:15:27.998Z,23.90
2018-05-26T08:18:05.264Z,23.80
2018-05-26T08:20:31.813Z,24.40
2018-05-26T08:22:58.225Z,25.20
2018-05-26T08:25:25.374Z,25.70
2018-05-26T08:27:52.528Z,25.10
2018-05-26T08:30:18.955Z,25.10
2018-05-26T08:32:45.394Z,24.50
2018-05-26T08:35:11.835Z,24.40
2018-05-26T08:37:38.268Z,25.30
2018-05-26T08:40:04.718Z,25.90
2018-05-26T08:42:31.157Z,25.80
2018-05-26T08:44:57.576Z,25.30
2018-05-26T08:47:24.155Z,26.00
2018-05-26T08:49:51.374Z,24.90
2018-05-26T08:52:17.800Z,24.80
2018-05-26T08:54:44.308Z,24.80
2018-05-26T08:57:11.579Z,25.40
2018-05-26T08:59:38.044Z,25.30
2018-05-26T09:02:06.114Z,25.20
2018-05-26T09:04:32.567Z,25.20
2018-05-26T09:06:59.797Z,25.40
2018-05-26T09:09:26.276Z,25.30
2018-05-26T09:11:53.399Z,25.60
2018-05-26T09:14:19.929Z,25.50
2018-05-26T09:16:46.349Z,25.70
2018-05-26T09:19:13.561Z,25.70
2018-05-26T09:21:40.144Z,25.80
2018-05-26T09:24:07.398Z,25.80
2018-05-26T09:26:33.879Z,25.80
2018-05-26T09:29:00.459Z,26.20
2018-05-26T09:31:27.971Z,26.00
2018-05-26T09:33:54.481Z,25.70
2018-05-26T09:36:21.038Z,26.00
2018-05-26T09:38:47.554Z,26.20
2018-05-26T09:41:14.782Z,26.30
2018-05-26T09:43:42.082Z,26.50
2018-05-26T09:46:08.588Z,26.50
2018-05-26T09:48:35.096Z,26.50
2018-05-26T09:51:02.344Z,26.80
2018-05-26T09:53:28.889Z,26.80
2018-05-26T09:55:55.406Z,27.30
2018-05-26T09:58:21.946Z,26.90
2018-05-26T10:00:48.497Z,26.90
2018-05-26T10:03:15.776Z,27.00
2018-05-26T10:05:42.285Z,27.00
2018-05-26T10:08:09.535Z,27.20
2018-05-26T10:10:36.788Z,27.30
2018-05-26T10:13:04.026Z,27.20
2018-05-26T10:15:30.536Z,27.20
2018-05-26T10:17:57.040Z,27.70
2018-05-26T10:20:23.563Z,27.80
2018-05-26T10:22:50.102Z,27.30
2018-05-26T10:25:17.254Z,27.70
2018-05-26T10:27:43.642Z,27.60
2018-05-26T10:30:10.048Z,27.80
2018-05-26T10:32:36.543Z,28.10
2018-05-26T10:35:02.981Z,28.30
2018-05-26T10:37:30.112Z,27.80
2018-05-26T10:39:56.529Z,27.80
2018-05-26T10:42:22.971Z,27.90
2018-05-26T10:44:50.189Z,27.70
2018-05-26T10:47:16.635Z,27.70
2018-05-26T10:49:43.014Z,28.10
2018-05-26T10:52:10.241Z,28.30
2018-05-26T10:54:36.727Z,28.30
2018-05-26T10:57:03.169Z,28.70
2018-05-26T10:59:29.594Z,28.40
2018-05-26T11:02:32.683Z,28.50
2018-05-26T11:04:59.233Z,28.30
2018-05-26T11:07:25.753Z,28.30
2018-05-26T11:09:53.030Z,28.50
2018-05-26T11:12:19.576Z,28.50
2018-05-26T11:14:46.080Z,28.40
2018-05-26T11:17:13.344Z,28.50
2018-05-26T11:19:40.868Z,28.50
2018-05-26T11:22:08.124Z,28.90
2018-05-26T11:24:36.401Z,28.60
2018-05-26T11:27:02.916Z,28.60
2018-05-26T11:29:29.423Z,29.00
2018-05-26T11:31:55.968Z,28.90
2018-05-26T11:34:23.487Z,28.70
2018-05-26T11:36:50.053Z,28.70
2018-05-26T11:39:16.651Z,28.60
2018-05-26T11:41:43.898Z,28.50
2018-05-26T11:44:10.412Z,28.50
2018-05-26T11:46:37.672Z,29.40
2018-05-26T11:49:04.980Z,29.30
2018-05-26T11:51:31.559Z,29.30
2018-05-26T11:53:58.815Z,29.00
2018-05-26T11:56:25.390Z,29.00
2018-05-26T11:58:51.986Z,28.70
2018-05-26T12:01:19.262Z,29.30
2018-05-26T12:06:11.935Z,29.10
2018-05-26T12:08:38.387Z,29.10
2018-05-26T12:11:12.992Z,28.50
2018-05-26T12:13:43.420Z,28.50
2018-05-26T12:16:18.906Z,29.10
2018-05-26T12:18:45.376Z,29.00
2018-05-26T12:21:12.537Z,29.80
2018-05-26T12:23:39.002Z,29.80
2018-05-26T12:26:05.434Z,30.40
2018-05-26T12:28:31.943Z,30.90
2018-05-26T12:30:58.371Z,31.30
2018-05-26T12:33:24.898Z,31.70
2018-05-26T12:35:51.330Z,31.10
2018-05-26T12:38:18.550Z,30.00
2018-05-26T12:40:45.945Z,29.90
2018-05-26T12:43:13.247Z,30.30
2018-05-26T12:45:39.679Z,30.30
2018-05-26T12:48:06.247Z,30.80
2018-05-26T12:50:33.632Z,30.30
2018-05-26T12:53:00.037Z,30.30
2018-05-26T12:55:26.655Z,30.60
2018-05-26T12:57:53.085Z,30.50
2018-05-26T13:00:19.701Z,30.50
2018-05-26T13:02:46.168Z,30.50
2018-05-26T13:05:14.394Z,30.40
2018-05-26T13:07:40.857Z,30.40
2018-05-26T13:10:08.547Z,30.10
2018-05-26T13:12:35.000Z,30.00
2018-05-26T13:15:02.272Z,30.30
2018-05-26T13:17:29.849Z,30.30
2018-05-26T13:19:57.007Z,31.60
2018-05-26T13:22:32.021Z,31.60
2018-05-26T13:24:58.626Z,31.90
2018-05-26T13:27:25.236Z,31.10
2018-05-26T13:29:51.740Z,31.20
2018-05-26T13:32:18.311Z,30.80
2018-05-26T13:34:45.634Z,30.80
2018-05-26T13:37:12.175Z,30.70
2018-05-26T13:39:38.689Z,30.90
2018-05-26T13:42:06.231Z,30.50
2018-05-26T13:44:32.778Z,31.00
2018-05-26T13:46:59.312Z,30.90
2018-05-26T13:49:25.840Z,30.80
2018-05-26T13:51:52.361Z,31.10
2018-05-26T13:54:18.982Z,32.00
2018-05-26T13:56:45.466Z,31.80
2018-05-26T13:59:11.967Z,31.80
2018-05-26T14:01:38.576Z,31.00
2018-05-26T14:04:05.207Z,31.10
2018-05-26T14:06:33.841Z,31.50
2018-05-26T14:09:00.407Z,32.00
2018-05-26T14:11:26.978Z,31.90
2018-05-26T14:13:53.568Z,31.60
2018-05-26T14:16:20.865Z,30.30
2018-05-26T14:18:48.176Z,30.20
2018-05-26T14:21:14.710Z,30.20
2018-05-26T14:23:41.252Z,30.80
2018-05-26T14:26:07.858Z,31.80
2018-05-26T14:28:34.332Z,31.40
2018-05-26T14:31:01.848Z,31.10
2018-05-26T14:33:28.676Z,30.90
2018-05-26T14:35:55.121Z,31.30
2018-05-26T14:38:21.560Z,30.50
2018-05-26T14:41:27.286Z,30.80
2018-05-26T14:43:53.743Z,30.40
2018-05-26T14:46:20.215Z,30.90
2018-05-26T14:48:46.641Z,31.60
2018-05-26T14:51:37.160Z,31.30
2018-05-26T14:54:03.704Z,31.20
2018-05-26T14:59:19.499Z,31.60
2018-05-26T15:01:46.756Z,31.60
2018-05-26T15:04:13.359Z,31.60
2018-05-26T15:06:39.873Z,31.80
2018-05-26T15:09:06.466Z,31.20
2018-05-26T15:11:33.702Z,31.40
2018-05-26T15:14:00.212Z,31.40
2018-05-26T15:16:26.718Z,31.20
2018-05-26T15:18:53.269Z,30.90
2018-05-26T15:21:19.777Z,31.00
2018-05-26T15:23:46.309Z,31.50
2018-05-26T15:26:12.838Z,31.20
2018-05-26T15:28:39.430Z,31.60
2018-05-26T15:31:05.923Z,32.10
2018-05-26T15:33:32.412Z,31.70
2018-05-26T15:35:58.922Z,32.20
2018-05-26T15:38:25.674Z,31.80
2018-05-26T15:40:52.199Z,30.90
2018-05-26T15:43:18.747Z,31.20
2018-05-26T15:45:45.243Z,31.20
2018-05-26T15:48:11.730Z,30.80
2018-05-26T15:50:39.015Z,31.40
2018-05-26T15:53:11.478Z,31.40
2018-05-26T15:55:38.029Z,31.40
2018-05-26T16:22:02.190Z,31.20
2018-05-26T16:24:29.292Z,31.00
2018-05-26T16:26:56.435Z,30.90
2018-05-26T16:29:24.019Z,30.70
2018-05-26T16:31:50.539Z,30.60
2018-05-26T16:34:17.860Z,30.90
2018-05-26T16:36:44.402Z,30.90
2018-05-26T16:39:10.967Z,30.80
2018-05-26T16:41:37.490Z,31.00
2018-05-26T16:44:04.032Z,30.90
2018-05-26T16:46:30.626Z,30.50
2018-05-26T16:48:59.372Z,30.80
2018-05-26T16:51:25.889Z,31.10
2018-05-26T16:53:52.461Z,30.70
2018-05-26T16:56:18.988Z,30.40
2018-05-26T16:58:46.309Z,30.40
2018-05-26T17:01:12.858Z,30.30
2018-05-26T17:03:40.186Z,30.10
2018-05-26T17:06:06.698Z,30.00
2018-05-26T17:08:33.406Z,30.30
2018-05-26T17:11:00.668Z,30.40
2018-05-26T17:13:28.376Z,30.40
2018-05-26T17:15:56.379Z,29.80
2018-05-26T17:18:22.937Z,29.70
2018-05-26T17:20:50.560Z,29.70
2018-05-26T17:23:17.210Z,29.50
2018-05-26T17:25:43.740Z,29.30
2018-05-26T17:28:11.031Z,28.80
2018-05-26T17:30:37.553Z,28.80
2018-05-26T17:33:04.946Z,28.60
2018-05-26T17:35:31.430Z,28.60
2018-05-26T17:37:58.053Z,28.80
2018-05-26T17:40:24.466Z,28.70
2018-05-26T17:42:51.095Z,28.70
2018-05-26T17:45:17.523Z,28.60
2018-05-26T17:47:43.973Z,28.60
2018-05-26T17:50:10.411Z,28.70
2018-05-26T17:52:36.831Z,28.70
2018-05-26T17:55:03.293Z,28.60
2018-05-26T17:57:30.642Z,28.30
2018-05-26T17:59:57.149Z,28.30
2018-05-26T18:02:24.482Z,28.20
2018-05-26T18:04:51.185Z,28.20
2018-05-26T18:07:17.690Z,28.20
2018-05-26T18:09:44.249Z,28.10
2018-05-26T18:12:11.447Z,28.10
2018-05-26T18:14:37.966Z,28.00
2018-05-26T18:17:04.396Z,28.00
2018-05-26T18:19:32.002Z,27.90
2018-05-26T18:21:58.411Z,27.90
2018-05-26T18:24:24.976Z,27.90
2018-05-26T18:26:52.377Z,27.70
2018-05-26T18:29:18.869Z,27.70
2018-05-26T18:31:46.018Z,27.60
2018-05-26T18:34:12.567Z,27.60
2018-05-26T18:36:38.996Z,27.50
2018-05-26T18:39:06.327Z,27.40
2018-05-26T18:41:32.718Z,27.40
2018-05-26T18:43:59.392Z,27.30
2018-05-26T18:46:25.983Z,27.30
2018-05-26T18:48:56.401Z,27.20
2018-05-26T18:51:28.204Z,27.10
2018-05-26T18:53:55.429Z,26.90
2018-05-26T18:56:22.275Z,26.90
2018-05-26T18:58:48.684Z,26.80
2018-05-26T19:01:15.159Z,26.70
2018-05-26T19:03:42.325Z,26.50
2018-05-26T19:06:08.770Z,26.50
2018-05-26T19:08:35.214Z,26.40
2018-05-26T19:11:01.618Z,26.30
2018-05-26T19:13:28.029Z,26.20
2018-05-26T19:15:55.243Z,26.10
2018-05-26T19:18:21.677Z,26.00
2018-05-26T19:20:49.884Z,25.80
2018-05-26T19:23:17.033Z,25.60
2018-05-26T19:25:43.459Z,25.60
2018-05-26T19:28:10.645Z,25.50
2018-05-26T19:30:37.040Z,25.40
2018-05-26T19:33:09.499Z,25.50
2018-05-26T19:35:44.990Z,25.40
2018-05-26T19:38:12.239Z,25.30
2018-05-26T19:40:38.660Z,25.30
2018-05-26T19:43:05.093Z,25.30
2018-05-26T19:45:32.283Z,25.20
2018-05-26T19:47:58.714Z,25.10
2018-05-26T19:50:25.884Z,25.10
2018-05-26T19:52:52.284Z,25.10
2018-05-26T19:55:19.470Z,24.90
2018-05-26T19:57:45.859Z,24.90
2018-05-26T20:00:12.323Z,24.90
2018-05-26T20:02:38.777Z,24.90
2018-05-26T20:05:05.304Z,24.80
2018-05-26T20:07:31.748Z,24.70
2018-05-26T20:09:58.276Z,24.60
2018-05-26T20:12:24.670Z,24.50
2018-05-26T20:14:51.141Z,24.60
2018-05-26T20:17:17.560Z,24.60
2018-05-26T20:19:44.115Z,24.60
2018-05-26T20:22:10.517Z,24.50
2018-05-26T20:24:38.850Z,24.40
2018-05-26T20:27:06.044Z,24.40
2018-05-26T20:29:32.494Z,24.40
2018-05-26T20:31:58.901Z,24.40
2018-05-26T20:34:25.345Z,24.30
2018-05-26T20:36:51.732Z,24.20
2018-05-26T20:39:18.174Z,24.20
2018-05-26T20:41:44.624Z,24.00
2018-05-26T20:44:11.031Z,24.00
2018-05-26T20:46:37.487Z,24.00
2018-05-26T21:21:27.723Z,23.40
2018-05-26T21:23:54.254Z,23.30
2018-05-26T21:26:20.676Z,23.30
2018-05-26T21:28:47.260Z,23.30
2018-05-26T21:31:13.695Z,23.30
2018-05-26T21:33:40.156Z,23.20
2018-05-26T21:36:06.561Z,23.20
2018-05-26T21:38:37.652Z,23.10
2018-05-26T21:51:23.850Z,22.70
2018-05-26T21:53:50.318Z,22.60
2018-05-26T21:56:17.458Z,22.60
2018-05-26T21:58:44.649Z,22.60
2018-05-26T22:01:11.041Z,22.60
2018-05-26T22:03:37.489Z,22.60
2018-05-26T22:06:04.642Z,22.60
2018-05-26T22:08:31.098Z,22.60
2018-05-26T22:10:57.530Z,22.60
2018-05-26T22:13:24.015Z,22.70
2018-05-26T22:15:51.201Z,22.90
2018-05-26T22:18:17.610Z,22.90
2018-05-26T22:20:44.756Z,22.80
2018-05-26T22:23:20.191Z,22.80
2018-05-26T22:29:21.246Z,22.90
2018-05-26T22:32:03.307Z,22.80
2018-05-26T22:34:30.429Z,22.80
2018-05-26T22:36:57.636Z,22.70
2018-05-26T22:39:24.066Z,22.60
2018-05-26T22:41:51.513Z,22.50
2018-05-26T22:44:18.651Z,22.50
2018-05-26T22:46:45.905Z,22.40
2018-05-26T22:49:13.036Z,22.40
2018-05-26T22:51:41.266Z,22.50
2018-05-26T22:54:07.804Z,22.50
2018-05-26T22:56:34.238Z,22.60
2018-05-26T22:59:00.735Z,22.60
2018-05-26T23:01:27.885Z,22.70
2018-05-26T23:03:55.335Z,22.70
2018-05-26T23:06:21.730Z,22.60
2018-05-26T23:08:48.213Z,22.60
2018-05-26T23:11:14.620Z,22.60
2018-05-26T23:13:41.805Z,22.40
2018-05-26T23:16:08.223Z,22.40
2018-05-26T23:18:34.657Z,22.30
2018-05-26T23:47:37.603Z,22.10
2018-05-26T23:50:22.980Z,22.00
2018-05-26T23:52:50.194Z,22.00
2018-05-26T23:55:16.726Z,22.00
2018-05-26T23:57:43.175Z,22.10
